sensor_id;sensor_type;location;lat;lon;timestamp;P1;durP1;ratioP1;P2;durP2;ratioP2
72926;SDS011;61071;51.618;19.388;2023-03-01T00:01:16;63.83;;;36.72;;
72926;SDS011;61071;51.618;19.388;2023-03-01T00:03:49;60.13;;;35.22;;
72926;SDS011;61071;51.618;19.388;2023-03-01T00:06:15;55.53;;;35.03;;
72926;SDS011;61071;51.618;19.388;2023-03-01T00:08:42;62.05;;;35.42;;
72926;SDS011;61071;51.618;19.388;2023-03-01T00:11:15;61.17;;;34.42;;
72926;SDS011;61071;51.618;19.388;2023-03-01T00:13:47;60.00;;;33.45;;
72926;SDS011;61071;51.618;19.388;2023-03-01T00:16:17;57.08;;;33.80;;
72926;SDS011;61071;51.618;19.388;2023-03-01T00:18:46;59.00;;;33.58;;
72926;SDS011;61071;51.618;19.388;2023-03-01T00:21:12;61.90;;;35.63;;
72926;SDS011;61071;51.618;19.388;2023-03-01T00:23:38;63.70;;;35.90;;
72926;SDS011;61071;51.618;19.388;2023-03-01T00:26:06;63.60;;;37.58;;
72926;SDS011;61071;51.618;19.388;2023-03-01T00:28:35;62.50;;;38.17;;
72926;SDS011;61071;51.618;19.388;2023-03-01T00:31:20;69.50;;;37.60;;
72926;SDS011;61071;51.618;19.388;2023-03-01T00:33:48;67.38;;;38.58;;
72926;SDS011;61071;51.618;19.388;2023-03-01T00:36:17;67.97;;;38.85;;
72926;SDS011;61071;51.618;19.388;2023-03-01T00:38:43;69.68;;;39.80;;
72926;SDS011;61071;51.618;19.388;2023-03-01T00:41:11;69.25;;;39.78;;
72926;SDS011;61071;51.618;19.388;2023-03-01T00:43:40;69.40;;;40.25;;
72926;SDS011;61071;51.618;19.388;2023-03-01T00:46:10;72.40;;;39.70;;
72926;SDS011;61071;51.618;19.388;2023-03-01T00:48:39;71.05;;;39.55;;
72926;SDS011;61071;51.618;19.388;2023-03-01T00:51:09;71.00;;;40.60;;
72926;SDS011;61071;51.618;19.388;2023-03-01T00:53:50;70.03;;;39.90;;
72926;SDS011;61071;51.618;19.388;2023-03-01T00:56:17;71.93;;;38.60;;
72926;SDS011;61071;51.618;19.388;2023-03-01T00:58:43;70.15;;;39.63;;
72926;SDS011;61071;51.618;19.388;2023-03-01T01:01:10;69.35;;;40.33;;
72926;SDS011;61071;51.618;19.388;2023-03-01T01:06:24;69.25;;;38.30;;
72926;SDS011;61071;51.618;19.388;2023-03-01T01:08:53;66.55;;;36.95;;
72926;SDS011;61071;51.618;19.388;2023-03-01T01:11:20;60.03;;;36.03;;
72926;SDS011;61071;51.618;19.388;2023-03-01T01:13:49;67.10;;;37.10;;
72926;SDS011;61071;51.618;19.388;2023-03-01T01:16:16;64.22;;;37.45;;
72926;SDS011;61071;51.618;19.388;2023-03-01T01:18:43;65.22;;;36.75;;
72926;SDS011;61071;51.618;19.388;2023-03-01T01:21:11;66.35;;;35.38;;
72926;SDS011;61071;51.618;19.388;2023-03-01T01:23:40;62.53;;;36.67;;
72926;SDS011;61071;51.618;19.388;2023-03-01T01:26:16;64.05;;;36.17;;
72926;SDS011;61071;51.618;19.388;2023-03-01T01:28:48;72.85;;;39.03;;
72926;SDS011;61071;51.618;19.388;2023-03-01T01:31:15;71.80;;;38.25;;
72926;SDS011;61071;51.618;19.388;2023-03-01T01:33:41;70.35;;;40.15;;
72926;SDS011;61071;51.618;19.388;2023-03-01T01:36:07;64.35;;;37.47;;
72926;SDS011;61071;51.618;19.388;2023-03-01T01:38:34;70.50;;;40.38;;
72926;SDS011;61071;51.618;19.388;2023-03-01T01:41:01;67.25;;;37.38;;
72926;SDS011;61071;51.618;19.388;2023-03-01T01:43:28;63.10;;;38.03;;
72926;SDS011;61071;51.618;19.388;2023-03-01T01:46:04;68.85;;;38.63;;
72926;SDS011;61071;51.618;19.388;2023-03-01T01:48:59;53.60;;;30.50;;
72926;SDS011;61071;51.618;19.388;2023-03-01T01:51:31;68.50;;;37.78;;
72926;SDS011;61071;51.618;19.388;2023-03-01T01:54:15;68.10;;;38.25;;
72926;SDS011;61071;51.618;19.388;2023-03-01T01:56:54;71.25;;;39.85;;
72926;SDS011;61071;51.618;19.388;2023-03-01T01:59:26;65.28;;;38.28;;
72926;SDS011;61071;51.618;19.388;2023-03-01T02:01:56;69.65;;;38.20;;
72926;SDS011;61071;51.618;19.388;2023-03-01T02:04:25;69.90;;;39.53;;
72926;SDS011;61071;51.618;19.388;2023-03-01T02:06:53;57.25;;;34.85;;
72926;SDS011;61071;51.618;19.388;2023-03-01T02:09:31;66.55;;;37.38;;
72926;SDS011;61071;51.618;19.388;2023-03-01T02:11:58;63.80;;;35.35;;
72926;SDS011;61071;51.618;19.388;2023-03-01T02:14:25;58.67;;;34.15;;
72926;SDS011;61071;51.618;19.388;2023-03-01T02:16:51;61.40;;;35.45;;
72926;SDS011;61071;51.618;19.388;2023-03-01T02:19:25;61.03;;;36.78;;
72926;SDS011;61071;51.618;19.388;2023-03-01T02:30:46;65.63;;;33.65;;
72926;SDS011;61071;51.618;19.388;2023-03-01T02:33:34;60.78;;;35.10;;
72926;SDS011;61071;51.618;19.388;2023-03-01T02:36:13;55.03;;;31.42;;
72926;SDS011;61071;51.618;19.388;2023-03-01T02:38:45;54.45;;;31.83;;
72926;SDS011;61071;51.618;19.388;2023-03-01T02:41:13;54.33;;;33.08;;
72926;SDS011;61071;51.618;19.388;2023-03-01T02:43:42;59.78;;;32.50;;
72926;SDS011;61071;51.618;19.388;2023-03-01T02:46:13;56.05;;;31.80;;
72926;SDS011;61071;51.618;19.388;2023-03-01T02:48:49;63.17;;;34.63;;
72926;SDS011;61071;51.618;19.388;2023-03-01T02:54:01;58.80;;;34.22;;
72926;SDS011;61071;51.618;19.388;2023-03-01T02:57:01;61.40;;;34.45;;
72926;SDS011;61071;51.618;19.388;2023-03-01T02:59:29;66.65;;;35.95;;
72926;SDS011;61071;51.618;19.388;2023-03-01T03:02:04;62.50;;;34.53;;
72926;SDS011;61071;51.618;19.388;2023-03-01T03:04:46;63.35;;;35.60;;
72926;SDS011;61071;51.618;19.388;2023-03-01T03:07:12;60.75;;;34.45;;
72926;SDS011;61071;51.618;19.388;2023-03-01T03:09:37;60.25;;;34.50;;
72926;SDS011;61071;51.618;19.388;2023-03-01T03:12:03;60.42;;;33.85;;
72926;SDS011;61071;51.618;19.388;2023-03-01T03:14:29;53.30;;;32.25;;
72926;SDS011;61071;51.618;19.388;2023-03-01T03:16:55;47.58;;;29.35;;
72926;SDS011;61071;51.618;19.388;2023-03-01T03:19:20;55.42;;;30.20;;
72926;SDS011;61071;51.618;19.388;2023-03-01T03:21:46;53.58;;;31.48;;
72926;SDS011;61071;51.618;19.388;2023-03-01T03:24:12;56.92;;;32.88;;
72926;SDS011;61071;51.618;19.388;2023-03-01T03:26:38;59.20;;;32.90;;
72926;SDS011;61071;51.618;19.388;2023-03-01T03:29:03;59.05;;;33.45;;
72926;SDS011;61071;51.618;19.388;2023-03-01T03:31:29;53.70;;;32.40;;
72926;SDS011;61071;51.618;19.388;2023-03-01T03:33:55;57.65;;;32.85;;
72926;SDS011;61071;51.618;19.388;2023-03-01T03:36:23;57.75;;;33.03;;
72926;SDS011;61071;51.618;19.388;2023-03-01T03:38:49;55.13;;;32.60;;
72926;SDS011;61071;51.618;19.388;2023-03-01T03:41:15;58.38;;;33.15;;
72926;SDS011;61071;51.618;19.388;2023-03-01T03:43:42;55.05;;;30.17;;
72926;SDS011;61071;51.618;19.388;2023-03-01T03:46:08;55.00;;;30.30;;
72926;SDS011;61071;51.618;19.388;2023-03-01T03:48:40;53.95;;;30.95;;
72926;SDS011;61071;51.618;19.388;2023-03-01T03:51:15;58.65;;;30.55;;
72926;SDS011;61071;51.618;19.388;2023-03-01T03:53:42;48.15;;;30.13;;
72926;SDS011;61071;51.618;19.388;2023-03-01T03:56:09;53.10;;;28.67;;
72926;SDS011;61071;51.618;19.388;2023-03-01T03:58:36;45.85;;;29.80;;
72926;SDS011;61071;51.618;19.388;2023-03-01T04:01:02;49.47;;;27.60;;
72926;SDS011;61071;51.618;19.388;2023-03-01T04:03:28;50.42;;;29.83;;
72926;SDS011;61071;51.618;19.388;2023-03-01T04:05:57;49.97;;;30.25;;
72926;SDS011;61071;51.618;19.388;2023-03-01T04:08:26;51.50;;;30.10;;
72926;SDS011;61071;51.618;19.388;2023-03-01T04:10:56;47.67;;;30.48;;
72926;SDS011;61071;51.618;19.388;2023-03-01T04:13:45;46.25;;;28.13;;
72926;SDS011;61071;51.618;19.388;2023-03-01T04:16:11;42.20;;;26.13;;
72926;SDS011;61071;51.618;19.388;2023-03-01T04:18:36;64.00;;;28.88;;
72926;SDS011;61071;51.618;19.388;2023-03-01T04:21:02;45.72;;;26.27;;
72926;SDS011;61071;51.618;19.388;2023-03-01T04:23:28;47.35;;;27.13;;
72926;SDS011;61071;51.618;19.388;2023-03-01T04:25:55;47.92;;;27.50;;
72926;SDS011;61071;51.618;19.388;2023-03-01T04:28:24;44.03;;;26.23;;
72926;SDS011;61071;51.618;19.388;2023-03-01T04:31:01;43.10;;;25.08;;
72926;SDS011;61071;51.618;19.388;2023-03-01T04:33:44;37.55;;;21.77;;
72926;SDS011;61071;51.618;19.388;2023-03-01T04:36:14;46.78;;;25.33;;
72926;SDS011;61071;51.618;19.388;2023-03-01T04:38:41;43.88;;;26.17;;
72926;SDS011;61071;51.618;19.388;2023-03-01T04:41:08;45.50;;;26.88;;
72926;SDS011;61071;51.618;19.388;2023-03-01T04:43:36;47.70;;;25.23;;
72926;SDS011;61071;51.618;19.388;2023-03-01T04:46:03;43.00;;;25.85;;
72926;SDS011;61071;51.618;19.388;2023-03-01T04:48:36;39.40;;;24.27;;
72926;SDS011;61071;51.618;19.388;2023-03-01T04:51:03;38.38;;;23.63;;
72926;SDS011;61071;51.618;19.388;2023-03-01T04:53:31;43.15;;;26.58;;
72926;SDS011;61071;51.618;19.388;2023-03-01T04:55:57;40.47;;;24.08;;
72926;SDS011;61071;51.618;19.388;2023-03-01T04:58:25;42.08;;;24.98;;
72926;SDS011;61071;51.618;19.388;2023-03-01T05:00:52;38.47;;;24.05;;
72926;SDS011;61071;51.618;19.388;2023-03-01T05:03:19;37.20;;;23.77;;
72926;SDS011;61071;51.618;19.388;2023-03-01T05:05:46;39.30;;;22.58;;
72926;SDS011;61071;51.618;19.388;2023-03-01T05:08:14;41.00;;;23.05;;
72926;SDS011;61071;51.618;19.388;2023-03-01T05:10:44;44.15;;;23.85;;
72926;SDS011;61071;51.618;19.388;2023-03-01T05:13:15;38.33;;;22.23;;
72926;SDS011;61071;51.618;19.388;2023-03-01T05:15:53;38.50;;;23.55;;
72926;SDS011;61071;51.618;19.388;2023-03-01T05:18:23;38.67;;;23.58;;
72926;SDS011;61071;51.618;19.388;2023-03-01T05:21:01;44.38;;;25.08;;
72926;SDS011;61071;51.618;19.388;2023-03-01T05:23:33;38.47;;;23.83;;
72926;SDS011;61071;51.618;19.388;2023-03-01T05:26:00;42.05;;;24.08;;
72926;SDS011;61071;51.618;19.388;2023-03-01T05:28:28;38.70;;;24.25;;
72926;SDS011;61071;51.618;19.388;2023-03-01T05:30:55;40.53;;;23.38;;
72926;SDS011;61071;51.618;19.388;2023-03-01T05:33:22;36.13;;;23.17;;
72926;SDS011;61071;51.618;19.388;2023-03-01T05:35:49;41.88;;;24.65;;
72926;SDS011;61071;51.618;19.388;2023-03-01T05:38:16;46.58;;;25.25;;
72926;SDS011;61071;51.618;19.388;2023-03-01T05:40:43;38.72;;;24.25;;
72926;SDS011;61071;51.618;19.388;2023-03-01T05:43:12;41.92;;;22.17;;
72926;SDS011;61071;51.618;19.388;2023-03-01T05:45:41;36.30;;;21.33;;
72926;SDS011;61071;51.618;19.388;2023-03-01T05:48:08;35.00;;;21.67;;
72926;SDS011;61071;51.618;19.388;2023-03-01T05:50:35;35.60;;;21.88;;
72926;SDS011;61071;51.618;19.388;2023-03-01T05:53:13;42.33;;;23.05;;
72926;SDS011;61071;51.618;19.388;2023-03-01T05:55:46;38.42;;;24.45;;
72926;SDS011;61071;51.618;19.388;2023-03-01T05:58:17;40.60;;;26.23;;
72926;SDS011;61071;51.618;19.388;2023-03-01T06:00:45;40.38;;;24.42;;
72926;SDS011;61071;51.618;19.388;2023-03-01T06:03:14;63.15;;;39.47;;
72926;SDS011;61071;51.618;19.388;2023-03-01T06:05:42;49.50;;;30.92;;
72926;SDS011;61071;51.618;19.388;2023-03-01T06:08:09;51.78;;;30.30;;
72926;SDS011;61071;51.618;19.388;2023-03-01T06:10:36;54.33;;;31.55;;
72926;SDS011;61071;51.618;19.388;2023-03-01T06:13:02;60.92;;;33.58;;
72926;SDS011;61071;51.618;19.388;2023-03-01T06:15:28;82.90;;;41.42;;
72926;SDS011;61071;51.618;19.388;2023-03-01T06:17:55;70.40;;;38.28;;
72926;SDS011;61071;51.618;19.388;2023-03-01T06:20:24;62.35;;;33.85;;
72926;SDS011;61071;51.618;19.388;2023-03-01T06:22:52;91.38;;;48.72;;
72926;SDS011;61071;51.618;19.388;2023-03-01T06:25:20;61.47;;;34.35;;
72926;SDS011;61071;51.618;19.388;2023-03-01T06:27:48;53.15;;;30.52;;
72926;SDS011;61071;51.618;19.388;2023-03-01T06:30:15;47.08;;;28.92;;
72926;SDS011;61071;51.618;19.388;2023-03-01T06:32:44;63.15;;;39.90;;
72926;SDS011;61071;51.618;19.388;2023-03-01T06:35:10;84.10;;;49.13;;
72926;SDS011;61071;51.618;19.388;2023-03-01T06:37:38;96.47;;;55.05;;
72926;SDS011;61071;51.618;19.388;2023-03-01T06:40:04;77.63;;;45.20;;
72926;SDS011;61071;51.618;19.388;2023-03-01T06:42:36;56.17;;;33.63;;
72926;SDS011;61071;51.618;19.388;2023-03-01T06:45:04;48.38;;;31.98;;
72926;SDS011;61071;51.618;19.388;2023-03-01T06:47:32;46.97;;;29.55;;
72926;SDS011;61071;51.618;19.388;2023-03-01T06:49:58;91.72;;;49.53;;
72926;SDS011;61071;51.618;19.388;2023-03-01T06:52:25;51.58;;;32.78;;
72926;SDS011;61071;51.618;19.388;2023-03-01T06:54:51;41.50;;;29.40;;
72926;SDS011;61071;51.618;19.388;2023-03-01T06:57:16;46.47;;;33.15;;
72926;SDS011;61071;51.618;19.388;2023-03-01T06:59:42;48.50;;;34.75;;
72926;SDS011;61071;51.618;19.388;2023-03-01T07:02:11;61.03;;;41.80;;
72926;SDS011;61071;51.618;19.388;2023-03-01T07:04:38;67.47;;;42.97;;
72926;SDS011;61071;51.618;19.388;2023-03-01T07:07:04;74.25;;;45.28;;
72926;SDS011;61071;51.618;19.388;2023-03-01T07:09:30;67.88;;;45.05;;
72926;SDS011;61071;51.618;19.388;2023-03-01T07:11:56;65.53;;;43.88;;
72926;SDS011;61071;51.618;19.388;2023-03-01T07:14:22;76.32;;;51.17;;
72926;SDS011;61071;51.618;19.388;2023-03-01T07:16:54;51.83;;;33.95;;
72926;SDS011;61071;51.618;19.388;2023-03-01T07:19:21;43.53;;;30.55;;
72926;SDS011;61071;51.618;19.388;2023-03-01T07:21:47;50.85;;;34.28;;
72926;SDS011;61071;51.618;19.388;2023-03-01T07:24:13;46.85;;;32.83;;
72926;SDS011;61071;51.618;19.388;2023-03-01T07:26:39;55.45;;;41.67;;
72926;SDS011;61071;51.618;19.388;2023-03-01T07:29:05;47.00;;;31.45;;
72926;SDS011;61071;51.618;19.388;2023-03-01T07:31:34;48.72;;;32.92;;
72926;SDS011;61071;51.618;19.388;2023-03-01T07:34:01;49.45;;;33.42;;
72926;SDS011;61071;51.618;19.388;2023-03-01T07:36:27;48.33;;;33.20;;
72926;SDS011;61071;51.618;19.388;2023-03-01T07:38:53;49.80;;;33.40;;
72926;SDS011;61071;51.618;19.388;2023-03-01T07:41:20;42.65;;;31.38;;
72926;SDS011;61071;51.618;19.388;2023-03-01T07:43:46;43.72;;;29.13;;
72926;SDS011;61071;51.618;19.388;2023-03-01T07:46:12;45.38;;;29.10;;
72926;SDS011;61071;51.618;19.388;2023-03-01T07:48:38;45.58;;;31.40;;
72926;SDS011;61071;51.618;19.388;2023-03-01T07:51:04;41.80;;;29.85;;
72926;SDS011;61071;51.618;19.388;2023-03-01T07:53:32;45.42;;;31.05;;
72926;SDS011;61071;51.618;19.388;2023-03-01T07:56:08;45.58;;;30.30;;
72926;SDS011;61071;51.618;19.388;2023-03-01T07:58:38;43.28;;;30.55;;
72926;SDS011;61071;51.618;19.388;2023-03-01T08:01:07;38.15;;;26.10;;
72926;SDS011;61071;51.618;19.388;2023-03-01T08:03:37;41.60;;;28.10;;
72926;SDS011;61071;51.618;19.388;2023-03-01T08:06:04;36.28;;;24.45;;
72926;SDS011;61071;51.618;19.388;2023-03-01T08:08:33;32.97;;;23.40;;
72926;SDS011;61071;51.618;19.388;2023-03-01T08:11:00;31.80;;;22.52;;
72926;SDS011;61071;51.618;19.388;2023-03-01T08:13:28;33.88;;;21.92;;
72926;SDS011;61071;51.618;19.388;2023-03-01T08:15:59;30.08;;;20.77;;
72926;SDS011;61071;51.618;19.388;2023-03-01T08:18:28;86.50;;;33.65;;
72926;SDS011;61071;51.618;19.388;2023-03-01T08:20:54;34.10;;;20.60;;
72926;SDS011;61071;51.618;19.388;2023-03-01T08:23:20;25.13;;;17.35;;
72926;SDS011;61071;51.618;19.388;2023-03-01T08:25:45;27.98;;;18.20;;
72926;SDS011;61071;51.618;19.388;2023-03-01T08:28:11;23.55;;;17.67;;
72926;SDS011;61071;51.618;19.388;2023-03-01T08:30:36;44.22;;;20.25;;
72926;SDS011;61071;51.618;19.388;2023-03-01T08:33:02;41.80;;;20.48;;
72926;SDS011;61071;51.618;19.388;2023-03-01T08:35:28;70.78;;;25.25;;
72926;SDS011;61071;51.618;19.388;2023-03-01T08:37:53;101.25;;;34.60;;
72926;SDS011;61071;51.618;19.388;2023-03-01T08:40:19;24.02;;;15.15;;
72926;SDS011;61071;51.618;19.388;2023-03-01T08:42:44;28.40;;;15.82;;
72926;SDS011;61071;51.618;19.388;2023-03-01T08:45:11;26.40;;;16.00;;
72926;SDS011;61071;51.618;19.388;2023-03-01T08:47:37;26.30;;;16.35;;
72926;SDS011;61071;51.618;19.388;2023-03-01T08:50:03;23.02;;;15.88;;
72926;SDS011;61071;51.618;19.388;2023-03-01T08:52:31;24.88;;;16.17;;
72926;SDS011;61071;51.618;19.388;2023-03-01T08:54:58;25.33;;;16.73;;
72926;SDS011;61071;51.618;19.388;2023-03-01T08:57:26;22.17;;;15.20;;
72926;SDS011;61071;51.618;19.388;2023-03-01T08:59:52;239.20;;;61.83;;
72926;SDS011;61071;51.618;19.388;2023-03-01T09:02:19;60.60;;;23.80;;
72926;SDS011;61071;51.618;19.388;2023-03-01T09:04:45;108.35;;;33.20;;
72926;SDS011;61071;51.618;19.388;2023-03-01T09:07:11;184.05;;;52.53;;
72926;SDS011;61071;51.618;19.388;2023-03-01T09:09:36;314.10;;;75.50;;
72926;SDS011;61071;51.618;19.388;2023-03-01T09:12:03;25.58;;;14.57;;
72926;SDS011;61071;51.618;19.388;2023-03-01T09:14:29;270.45;;;78.10;;
72926;SDS011;61071;51.618;19.388;2023-03-01T09:16:55;27.42;;;16.55;;
72926;SDS011;61071;51.618;19.388;2023-03-01T09:19:21;20.90;;;13.23;;
72926;SDS011;61071;51.618;19.388;2023-03-01T09:21:47;91.70;;;29.10;;
72926;SDS011;61071;51.618;19.388;2023-03-01T09:24:22;125.70;;;37.00;;
72926;SDS011;61071;51.618;19.388;2023-03-01T09:26:50;20.30;;;13.05;;
72926;SDS011;61071;51.618;19.388;2023-03-01T09:29:20;18.93;;;12.13;;
72926;SDS011;61071;51.618;19.388;2023-03-01T09:31:46;236.50;;;54.97;;
72926;SDS011;61071;51.618;19.388;2023-03-01T09:34:12;153.77;;;46.20;;
72926;SDS011;61071;51.618;19.388;2023-03-01T09:36:41;248.45;;;58.67;;
72926;SDS011;61071;51.618;19.388;2023-03-01T09:39:07;151.05;;;43.28;;
72926;SDS011;61071;51.618;19.388;2023-03-01T09:44:35;30.20;;;13.77;;
72926;SDS011;61071;51.618;19.388;2023-03-01T09:47:18;85.88;;;25.75;;
72926;SDS011;61071;51.618;19.388;2023-03-01T09:49:51;136.15;;;34.63;;
72926;SDS011;61071;51.618;19.388;2023-03-01T09:52:43;19.05;;;11.88;;
72926;SDS011;61071;51.618;19.388;2023-03-01T09:55:43;14.82;;;9.82;;
72926;SDS011;61071;51.618;19.388;2023-03-01T10:06:35;27.67;;;13.07;;
72926;SDS011;61071;51.618;19.388;2023-03-01T10:09:11;141.20;;;35.10;;
72926;SDS011;61071;51.618;19.388;2023-03-01T10:11:41;15.23;;;10.13;;
72926;SDS011;61071;51.618;19.388;2023-03-01T10:20:14;13.88;;;9.48;;
72926;SDS011;61071;51.618;19.388;2023-03-01T10:22:43;259.15;;;74.50;;
72926;SDS011;61071;51.618;19.388;2023-03-01T10:25:15;111.65;;;30.30;;
72926;SDS011;61071;51.618;19.388;2023-03-01T10:27:52;14.50;;;9.27;;
72926;SDS011;61071;51.618;19.388;2023-03-01T10:30:38;15.50;;;10.30;;
72926;SDS011;61071;51.618;19.388;2023-03-01T10:36:02;17.50;;;10.85;;
72926;SDS011;61071;51.618;19.388;2023-03-01T10:38:31;21.80;;;10.45;;
72926;SDS011;61071;51.618;19.388;2023-03-01T10:41:18;30.02;;;11.55;;
72926;SDS011;61071;51.618;19.388;2023-03-01T10:43:53;12.05;;;6.60;;
72926;SDS011;61071;51.618;19.388;2023-03-01T10:46:26;12.73;;;7.15;;
72926;SDS011;61071;51.618;19.388;2023-03-01T10:49:13;9.32;;;5.90;;
72926;SDS011;61071;51.618;19.388;2023-03-01T10:51:46;8.38;;;5.22;;
72926;SDS011;61071;51.618;19.388;2023-03-01T10:54:30;13.55;;;6.97;;
72926;SDS011;61071;51.618;19.388;2023-03-01T10:57:02;8.73;;;5.78;;
72926;SDS011;61071;51.618;19.388;2023-03-01T10:59:34;8.55;;;5.63;;
72926;SDS011;61071;51.618;19.388;2023-03-01T11:07:01;14.77;;;8.10;;
72926;SDS011;61071;51.618;19.388;2023-03-01T11:09:30;90.47;;;29.00;;
72926;SDS011;61071;51.618;19.388;2023-03-01T11:12:03;11.40;;;6.82;;
72926;SDS011;61071;51.618;19.388;2023-03-01T11:14:36;9.48;;;6.00;;
72926;SDS011;61071;51.618;19.388;2023-03-01T11:20:00;15.63;;;8.77;;
72926;SDS011;61071;51.618;19.388;2023-03-01T11:25:13;14.43;;;6.38;;
72926;SDS011;61071;51.618;19.388;2023-03-01T11:27:43;64.47;;;19.83;;
72926;SDS011;61071;51.618;19.388;2023-03-01T11:30:34;54.95;;;18.15;;
72926;SDS011;61071;51.618;19.388;2023-03-01T11:35:34;9.40;;;5.93;;
72926;SDS011;61071;51.618;19.388;2023-03-01T11:38:14;14.10;;;7.47;;
72926;SDS011;61071;51.618;19.388;2023-03-01T11:41:01;11.45;;;6.47;;
72926;SDS011;61071;51.618;19.388;2023-03-01T11:43:47;21.23;;;15.23;;
72926;SDS011;61071;51.618;19.388;2023-03-01T11:51:52;8.25;;;5.32;;
72926;SDS011;61071;51.618;19.388;2023-03-01T12:04:04;8.02;;;5.70;;
72926;SDS011;61071;51.618;19.388;2023-03-01T12:07:33;7.15;;;6.07;;
72926;SDS011;61071;51.618;19.388;2023-03-01T12:09:55;10.55;;;6.53;;
72926;SDS011;61071;51.618;19.388;2023-03-01T12:27:54;11.10;;;8.57;;
72926;SDS011;61071;51.618;19.388;2023-03-01T12:30:52;11.70;;;8.13;;
72926;SDS011;61071;51.618;19.388;2023-03-01T12:51:14;15.75;;;10.40;;
72926;SDS011;61071;51.618;19.388;2023-03-01T12:53:49;13.02;;;8.25;;
72926;SDS011;61071;51.618;19.388;2023-03-01T12:56:22;15.20;;;9.00;;
72926;SDS011;61071;51.618;19.388;2023-03-01T12:58:59;13.65;;;8.18;;
72926;SDS011;61071;51.618;19.388;2023-03-01T13:08:27;14.00;;;8.50;;
72926;SDS011;61071;51.618;19.388;2023-03-01T13:11:18;12.75;;;8.90;;
72926;SDS011;61071;51.618;19.388;2023-03-01T13:13:47;11.95;;;8.52;;
72926;SDS011;61071;51.618;19.388;2023-03-01T13:16:21;17.73;;;9.05;;
72926;SDS011;61071;51.618;19.388;2023-03-01T13:21:49;12.80;;;8.40;;
72926;SDS011;61071;51.618;19.388;2023-03-01T13:24:38;12.43;;;6.73;;
72926;SDS011;61071;51.618;19.388;2023-03-01T13:32:29;10.35;;;6.75;;
72926;SDS011;61071;51.618;19.388;2023-03-01T13:37:42;11.50;;;7.68;;
72926;SDS011;61071;51.618;19.388;2023-03-01T13:42:53;13.02;;;7.47;;
72926;SDS011;61071;51.618;19.388;2023-03-01T13:45:21;13.65;;;7.80;;
72926;SDS011;61071;51.618;19.388;2023-03-01T13:47:59;9.90;;;7.72;;
72926;SDS011;61071;51.618;19.388;2023-03-01T13:53:26;11.13;;;7.93;;
72926;SDS011;61071;51.618;19.388;2023-03-01T13:56:00;12.07;;;7.45;;
72926;SDS011;61071;51.618;19.388;2023-03-01T13:58:33;11.02;;;7.82;;
72926;SDS011;61071;51.618;19.388;2023-03-01T14:01:23;10.57;;;7.80;;
72926;SDS011;61071;51.618;19.388;2023-03-01T14:03:55;11.48;;;7.35;;
72926;SDS011;61071;51.618;19.388;2023-03-01T14:06:23;11.90;;;8.02;;
72926;SDS011;61071;51.618;19.388;2023-03-01T14:18:08;15.70;;;10.32;;
72926;SDS011;61071;51.618;19.388;2023-03-01T14:20:46;17.20;;;10.40;;
72926;SDS011;61071;51.618;19.388;2023-03-01T14:23:25;16.63;;;11.20;;
72926;SDS011;61071;51.618;19.388;2023-03-01T14:25:55;18.63;;;11.98;;
72926;SDS011;61071;51.618;19.388;2023-03-01T14:28:24;16.73;;;11.43;;
72926;SDS011;61071;51.618;19.388;2023-03-01T14:30:54;17.58;;;11.45;;
72926;SDS011;61071;51.618;19.388;2023-03-01T14:33:24;18.30;;;11.02;;
72926;SDS011;61071;51.618;19.388;2023-03-01T14:36:00;24.63;;;11.75;;
72926;SDS011;61071;51.618;19.388;2023-03-01T14:38:30;16.30;;;10.60;;
72926;SDS011;61071;51.618;19.388;2023-03-01T14:44:01;16.05;;;11.80;;
72926;SDS011;61071;51.618;19.388;2023-03-01T14:46:33;14.27;;;10.93;;
72926;SDS011;61071;51.618;19.388;2023-03-01T14:49:07;15.10;;;11.38;;
72926;SDS011;61071;51.618;19.388;2023-03-01T14:51:41;17.27;;;12.15;;
72926;SDS011;61071;51.618;19.388;2023-03-01T14:54:28;17.02;;;11.98;;
72926;SDS011;61071;51.618;19.388;2023-03-01T14:57:00;20.20;;;11.95;;
72926;SDS011;61071;51.618;19.388;2023-03-01T14:59:27;17.15;;;11.77;;
72926;SDS011;61071;51.618;19.388;2023-03-01T15:01:55;17.75;;;11.43;;
72926;SDS011;61071;51.618;19.388;2023-03-01T15:04:24;16.70;;;11.52;;
72926;SDS011;61071;51.618;19.388;2023-03-01T15:06:53;20.02;;;11.32;;
72926;SDS011;61071;51.618;19.388;2023-03-01T15:09:21;21.00;;;11.50;;
72926;SDS011;61071;51.618;19.388;2023-03-01T15:11:48;18.13;;;11.98;;
72926;SDS011;61071;51.618;19.388;2023-03-01T15:17:18;17.65;;;11.60;;
72926;SDS011;61071;51.618;19.388;2023-03-01T15:20:00;18.63;;;12.48;;
72926;SDS011;61071;51.618;19.388;2023-03-01T15:22:29;50.17;;;26.38;;
72926;SDS011;61071;51.618;19.388;2023-03-01T15:24:55;97.28;;;52.67;;
72926;SDS011;61071;51.618;19.388;2023-03-01T15:27:23;36.30;;;20.42;;
72926;SDS011;61071;51.618;19.388;2023-03-01T15:29:58;178.20;;;80.35;;
72926;SDS011;61071;51.618;19.388;2023-03-01T15:32:34;48.15;;;23.60;;
72926;SDS011;61071;51.618;19.388;2023-03-01T15:40:56;340.98;;;157.63;;
72926;SDS011;61071;51.618;19.388;2023-03-01T15:43:38;33.83;;;20.65;;
72926;SDS011;61071;51.618;19.388;2023-03-01T15:46:11;69.33;;;38.10;;
72926;SDS011;61071;51.618;19.388;2023-03-01T15:49:06;252.63;;;127.18;;
72926;SDS011;61071;51.618;19.388;2023-03-01T15:52:03;459.60;;;179.70;;
72926;SDS011;61071;51.618;19.388;2023-03-01T15:54:30;636.25;;;255.45;;
72926;SDS011;61071;51.618;19.388;2023-03-01T15:56:57;710.85;;;319.63;;
72926;SDS011;61071;51.618;19.388;2023-03-01T15:59:22;208.10;;;88.07;;
72926;SDS011;61071;51.618;19.388;2023-03-01T16:01:48;22.55;;;13.70;;
72926;SDS011;61071;51.618;19.388;2023-03-01T16:04:16;17.58;;;11.35;;
72926;SDS011;61071;51.618;19.388;2023-03-01T16:06:48;16.27;;;11.18;;
72926;SDS011;61071;51.618;19.388;2023-03-01T16:09:24;17.77;;;12.00;;
72926;SDS011;61071;51.618;19.388;2023-03-01T16:11:51;34.03;;;12.38;;
72926;SDS011;61071;51.618;19.388;2023-03-01T16:14:18;16.15;;;10.95;;
72926;SDS011;61071;51.618;19.388;2023-03-01T16:16:45;16.67;;;11.35;;
72926;SDS011;61071;51.618;19.388;2023-03-01T16:19:13;17.80;;;11.23;;
72926;SDS011;61071;51.618;19.388;2023-03-01T16:21:40;19.20;;;11.38;;
72926;SDS011;61071;51.618;19.388;2023-03-01T16:24:07;19.77;;;10.98;;
72926;SDS011;61071;51.618;19.388;2023-03-01T16:26:34;15.43;;;11.88;;
72926;SDS011;61071;51.618;19.388;2023-03-01T16:29:02;19.83;;;13.52;;
72926;SDS011;61071;51.618;19.388;2023-03-01T16:31:29;24.45;;;15.77;;
72926;SDS011;61071;51.618;19.388;2023-03-01T16:33:55;26.40;;;16.90;;
72926;SDS011;61071;51.618;19.388;2023-03-01T16:36:23;24.25;;;16.55;;
72926;SDS011;61071;51.618;19.388;2023-03-01T16:38:53;23.73;;;15.23;;
72926;SDS011;61071;51.618;19.388;2023-03-01T16:41:21;22.50;;;14.43;;
72926;SDS011;61071;51.618;19.388;2023-03-01T16:43:48;22.02;;;13.52;;
72926;SDS011;61071;51.618;19.388;2023-03-01T16:46:16;20.55;;;14.00;;
72926;SDS011;61071;51.618;19.388;2023-03-01T16:48:48;20.73;;;14.50;;
72926;SDS011;61071;51.618;19.388;2023-03-01T16:51:15;20.77;;;13.73;;